Time,TemperatureF,DewpointF,PressureIn,WindDirection,WindDirectionDegrees,WindSpeedMPH,WindSpeedGustMPH,Humidity,HourlyPrecipIn,Conditions,Clouds,dailyrainin,SolarRadiationWatts/m^2,SoftwareType,DateUTC
2013-09-21 00:04:00,64.0,64.0,-100.00,SSW,197,2.0,4.0,100,0.00,,,0.00,0.000000,,2013-09-21 04:04:00,
2013-09-21 00:14:00,64.0,64.0,-100.00,SSW,197,2.0,4.0,100,0.00,,,0.00,0.000000,,2013-09-21 04:14:00,
2013-09-21 00:44:00,63.0,63.0,-100.00,SE,138,1.0,4.0,100,0.00,,,0.00,0.000000,,2013-09-21 04:44:00,
2013-09-21 00:54:00,63.0,63.0,-100.00,SE,138,1.0,4.0,100,0.00,,,0.00,0.000000,,2013-09-21 04:54:00,
2013-09-21 01:04:00,63.0,63.0,-100.00,SE,138,1.0,4.0,100,0.00,,,0.00,0.000000,,2013-09-21 05:04:00,
2013-09-21 01:13:00,63.0,63.0,-100.00,SE,138,1.0,4.0,100,0.00,,,0.00,0.000000,,2013-09-21 05:13:00,
2013-09-21 01:44:00,63.0,63.0,-100.00,ESE,118,1.0,2.0,100,0.00,,,0.00,0.000000,,2013-09-21 05:44:00,
2013-09-21 01:53:00,63.0,63.0,-100.00,ESE,118,1.0,2.0,100,0.00,,,0.00,0.000000,,2013-09-21 05:53:00,
2013-09-21 02:02:00,63.0,63.0,-100.00,ESE,118,1.0,2.0,100,0.00,,,0.00,0.000000,,2013-09-21 06:02:00,
2013-09-21 02:12:00,63.0,63.0,-100.00,ESE,118,1.0,2.0,100,0.00,,,0.00,0.000000,,2013-09-21 06:12:00,
2013-09-21 03:52:00,62.0,62.0,-100.00,SSE,147,0.0,1.0,100,-99.99,,,0.00,0.000000,,2013-09-21 07:52:00,
2013-09-21 04:03:00,62.0,62.0,-100.00,SSE,147,0.0,1.0,100,-99.99,,,0.00,0.000000,,2013-09-21 08:03:00,
2013-09-21 04:13:00,62.0,62.0,-100.00,SSE,147,0.0,1.0,100,-99.99,,,0.00,0.000000,,2013-09-21 08:13:00,
2013-09-21 04:52:00,61.0,61.0,-100.00,SE,127,1.0,2.0,100,0.00,,,0.00,0.000000,,2013-09-21 08:52:00,
2013-09-21 05:02:00,61.0,61.0,-100.00,SE,127,1.0,2.0,100,0.00,,,0.00,0.000000,,2013-09-21 09:02:00,
2013-09-21 05:11:00,61.0,61.0,-100.00,SE,127,1.0,2.0,100,0.00,,,0.00,0.000000,,2013-09-21 09:11:00,
2013-09-21 05:43:00,61.0,61.0,-100.00,SE,136,0.0,2.0,100,0.00,,,0.00,0.000000,,2013-09-21 09:43:00,
2013-09-21 05:54:00,61.0,61.0,-100.00,SE,136,0.0,2.0,100,0.00,,,0.00,0.000000,,2013-09-21 09:54:00,
2013-09-21 06:03:00,61.0,61.0,-100.00,SE,136,0.0,2.0,100,0.00,,,0.00,0.000000,,2013-09-21 10:03:00,
2013-09-21 06:12:00,61.0,61.0,-100.00,SE,136,0.0,2.0,100,0.00,,,0.00,0.000000,,2013-09-21 10:12:00,
2013-09-21 06:42:00,61.0,61.0,-100.00,SE,132,0.0,2.0,100,0.00,,,0.00,0.000000,,2013-09-21 10:42:00,
2013-09-21 06:53:00,61.0,61.0,-100.00,SE,132,0.0,2.0,100,0.00,,,0.00,0.000000,,2013-09-21 10:53:00,
2013-09-21 07:03:00,61.0,61.0,-100.00,SE,132,0.0,2.0,100,0.00,,,0.00,0.000000,,2013-09-21 11:03:00,
2013-09-21 07:12:00,61.0,61.0,-100.00,SE,132,0.0,2.0,100,0.00,,,0.00,0.000000,,2013-09-21 11:12:00,
2013-09-21 07:42:00,61.0,61.0,-100.00,ESE,115,0.0,2.0,100,0.00,,,0.00,0.000000,,2013-09-21 11:42:00,
2013-09-21 07:52:00,61.0,61.0,-100.00,ESE,115,0.0,2.0,100,0.00,,,0.00,0.000000,,2013-09-21 11:52:00,
2013-09-21 08:02:00,61.0,61.0,-100.00,ESE,115,0.0,2.0,100,0.00,,,0.00,0.000000,,2013-09-21 12:02:00,
2013-09-21 08:12:00,61.0,61.0,-100.00,ESE,115,0.0,2.0,100,0.00,,,0.00,0.000000,,2013-09-21 12:12:00,
2013-09-21 08:42:00,61.0,61.0,-100.00,West,259,1.0,3.0,100,0.00,,,0.00,16.000000,,2013-09-21 12:42:00,
2013-09-21 08:52:00,61.0,61.0,-100.00,West,259,1.0,3.0,100,0.00,,,0.00,16.000000,,2013-09-21 12:52:00,
2013-09-21 09:02:00,61.0,61.0,-100.00,West,259,1.0,3.0,100,0.00,,,0.00,16.000000,,2013-09-21 13:02:00,
2013-09-21 09:11:00,61.0,61.0,-100.00,West,259,1.0,3.0,100,0.00,,,0.00,16.000000,,2013-09-21 13:11:00,
2013-09-21 09:42:00,63.0,63.0,-100.00,SE,130,1.0,3.0,100,0.00,,,0.00,30.000000,,2013-09-21 13:42:00,
2013-09-21 09:53:00,63.0,63.0,-100.00,SE,130,1.0,3.0,100,0.00,,,0.00,30.000000,,2013-09-21 13:53:00,
2013-09-21 10:02:00,63.0,63.0,-100.00,SE,130,1.0,3.0,100,0.00,,,0.00,30.000000,,2013-09-21 14:02:00,
2013-09-21 10:11:00,63.0,63.0,-100.00,SE,130,1.0,3.0,100,0.00,,,0.00,30.000000,,2013-09-21 14:11:00,
2013-09-21 10:42:00,65.0,65.0,-100.00,ESE,121,1.0,3.0,100,0.02,,,0.02,68.000000,,2013-09-21 14:42:00,
2013-09-21 10:52:00,65.0,65.0,-100.00,ESE,121,1.0,3.0,100,0.02,,,0.02,68.000000,,2013-09-21 14:52:00,
2013-09-21 11:02:00,65.0,65.0,-100.00,ESE,121,1.0,3.0,100,0.02,,,0.02,68.000000,,2013-09-21 15:02:00,
2013-09-21 11:12:00,65.0,65.0,-100.00,ESE,121,1.0,3.0,100,0.02,,,0.02,68.000000,,2013-09-21 15:12:00,
2013-09-21 11:45:00,67.0,67.0,-100.00,SW,217,2.0,4.0,100,0.06,,,0.08,87.000000,,2013-09-21 15:45:00,
2013-09-21 11:55:00,67.0,67.0,-100.00,SW,217,2.0,4.0,100,0.06,,,0.08,87.000000,,2013-09-21 15:55:00,
2013-09-21 12:05:00,67.0,67.0,-100.00,SW,217,2.0,4.0,100,0.06,,,0.08,87.000000,,2013-09-21 16:05:00,
2013-09-21 12:14:00,67.0,67.0,-100.00,SW,217,2.0,4.0,100,0.06,,,0.08,87.000000,,2013-09-21 16:14:00,
2013-09-21 12:43:00,68.0,68.0,-100.00,WSW,250,0.0,6.0,100,0.15,,,0.23,109.000000,,2013-09-21 16:43:00,
2013-09-21 12:54:00,68.0,68.0,-100.00,WSW,250,0.0,6.0,100,0.15,,,0.23,109.000000,,2013-09-21 16:54:00,
2013-09-21 13:03:00,68.0,68.0,-100.00,WSW,250,0.0,6.0,100,0.15,,,0.23,109.000000,,2013-09-21 17:03:00,
2013-09-21 13:12:00,68.0,68.0,-100.00,WSW,250,0.0,6.0,100,0.15,,,0.23,109.000000,,2013-09-21 17:12:00,
2013-09-21 13:43:00,63.0,61.0,-100.00,SE,125,2.0,11.0,94,0.20,,,0.43,63.000000,,2013-09-21 17:43:00,
2013-09-21 13:52:00,63.0,61.0,-100.00,SE,125,2.0,11.0,94,0.20,,,0.43,63.000000,,2013-09-21 17:52:00,
2013-09-21 14:02:00,63.0,61.0,-100.00,SE,125,2.0,11.0,94,0.20,,,0.43,63.000000,,2013-09-21 18:02:00,
2013-09-21 14:13:00,63.0,61.0,-100.00,SE,125,2.0,11.0,94,0.20,,,0.43,63.000000,,2013-09-21 18:13:00,
2013-09-21 14:42:00,63.0,63.0,-100.00,SE,137,1.0,4.0,100,0.04,,,0.47,95.000000,,2013-09-21 18:42:00,
2013-09-21 14:52:00,63.0,63.0,-100.00,SE,137,1.0,4.0,100,0.04,,,0.47,95.000000,,2013-09-21 18:52:00,
2013-09-21 15:02:00,63.0,63.0,-100.00,SE,137,1.0,4.0,100,0.04,,,0.47,95.000000,,2013-09-21 19:02:00,
2013-09-21 15:12:00,63.0,63.0,-100.00,SE,137,1.0,4.0,100,0.04,,,0.47,95.000000,,2013-09-21 19:12:00,
2013-09-21 15:42:00,63.0,63.0,-100.00,SE,130,2.0,3.0,99,0.04,,,0.51,100.000000,,2013-09-21 19:42:00,
2013-09-21 15:52:00,63.0,63.0,-100.00,SE,130,2.0,3.0,99,0.04,,,0.51,100.000000,,2013-09-21 19:52:00,
2013-09-21 16:02:00,63.0,63.0,-100.00,SE,130,2.0,3.0,99,0.04,,,0.51,100.000000,,2013-09-21 20:02:00,
2013-09-21 16:12:00,63.0,63.0,-100.00,SE,130,2.0,3.0,99,0.04,,,0.51,100.000000,,2013-09-21 20:12:00,
2013-09-21 16:43:00,63.0,63.0,-100.00,ESE,120,2.0,5.0,99,0.01,,,0.52,86.000000,,2013-09-21 20:43:00,
2013-09-21 16:52:00,63.0,63.0,-100.00,ESE,120,2.0,5.0,99,0.01,,,0.52,86.000000,,2013-09-21 20:52:00,
2013-09-21 17:02:00,63.0,63.0,-100.00,ESE,120,2.0,5.0,99,0.01,,,0.52,86.000000,,2013-09-21 21:02:00,
2013-09-21 17:12:00,63.0,63.0,-100.00,ESE,120,2.0,5.0,99,0.01,,,0.52,86.000000,,2013-09-21 21:12:00,
2013-09-21 17:45:00,63.0,63.0,-100.00,SSE,149,1.0,4.0,99,0.00,,,0.52,101.000000,,2013-09-21 21:45:00,
2013-09-21 17:54:00,63.0,63.0,-100.00,SSE,149,1.0,4.0,99,0.00,,,0.52,101.000000,,2013-09-21 21:54:00,
2013-09-21 18:05:00,63.0,63.0,-100.00,SSE,149,1.0,4.0,99,0.00,,,0.52,101.000000,,2013-09-21 22:05:00,
2013-09-21 18:14:00,63.0,63.0,-100.00,SSE,149,1.0,4.0,99,0.00,,,0.52,101.000000,,2013-09-21 22:14:00,
2013-09-21 18:43:00,64.0,63.0,-100.00,SSE,151,2.0,3.0,98,0.00,,,0.52,118.000000,,2013-09-21 22:43:00,
2013-09-21 18:53:00,64.0,63.0,-100.00,SSE,151,2.0,3.0,98,0.00,,,0.52,118.000000,,2013-09-21 22:53:00,
2013-09-21 19:03:00,64.0,63.0,-100.00,SSE,151,2.0,3.0,98,0.00,,,0.52,118.000000,,2013-09-21 23:03:00,
2013-09-21 19:13:00,64.0,63.0,-100.00,SSE,151,2.0,3.0,98,0.00,,,0.52,118.000000,,2013-09-21 23:13:00,
2013-09-21 19:42:00,62.0,62.0,-100.00,ESE,103,0.0,3.0,100,0.00,,,-99.99,37.000000,,2013-09-21 23:42:00,
2013-09-21 19:53:00,62.0,62.0,-100.00,ESE,103,0.0,3.0,100,0.00,,,-99.99,37.000000,,2013-09-21 23:53:00,
2013-09-21 20:02:00,62.0,62.0,-100.00,ESE,103,0.0,3.0,100,0.00,,,-99.99,37.000000,,2013-09-22 00:02:00,
2013-09-21 20:12:00,62.0,62.0,-100.00,ESE,103,0.0,3.0,100,0.00,,,-99.99,37.000000,,2013-09-22 00:12:00,
2013-09-21 20:43:00,61.0,61.0,-100.00,ENE,68,1.0,2.0,100,0.00,,,0.52,1.000000,,2013-09-22 00:43:00,
2013-09-21 20:52:00,61.0,61.0,-100.00,ENE,68,1.0,2.0,100,0.00,,,0.52,1.000000,,2013-09-22 00:52:00,
2013-09-21 21:02:00,61.0,61.0,-100.00,ENE,68,1.0,2.0,100,0.00,,,0.52,1.000000,,2013-09-22 01:02:00,
2013-09-21 21:12:00,61.0,61.0,-100.00,ENE,68,1.0,2.0,100,0.00,,,0.52,1.000000,,2013-09-22 01:12:00,
2013-09-21 21:42:00,60.0,60.0,-100.00,East,94,0.0,5.0,100,0.00,,,0.52,0.000000,,2013-09-22 01:42:00,
2013-09-21 21:52:00,60.0,60.0,-100.00,East,94,0.0,5.0,100,0.00,,,0.52,0.000000,,2013-09-22 01:52:00,
2013-09-21 22:02:00,60.0,60.0,-100.00,East,94,0.0,5.0,100,0.00,,,0.52,0.000000,,2013-09-22 02:02:00,
2013-09-21 22:12:00,60.0,60.0,-100.00,East,94,0.0,5.0,100,0.00,,,0.52,0.000000,,2013-09-22 02:12:00,
2013-09-21 22:42:00,60.0,60.0,-100.00,SE,146,3.0,5.0,100,0.00,,,0.52,0.000000,,2013-09-22 02:42:00,
2013-09-21 22:52:00,60.0,60.0,-100.00,SE,146,3.0,5.0,100,0.00,,,0.52,0.000000,,2013-09-22 02:52:00,
2013-09-21 23:02:00,60.0,60.0,-100.00,SE,146,3.0,5.0,100,0.00,,,0.52,0.000000,,2013-09-22 03:02:00,
2013-09-21 23:12:00,60.0,60.0,-100.00,SE,146,3.0,5.0,100,0.00,,,0.52,0.000000,,2013-09-22 03:12:00,
2013-09-21 23:45:00,59.0,59.0,-100.00,SE,136,1.0,2.0,100,0.00,,,0.52,0.000000,,2013-09-22 03:45:00,
2013-09-21 23:54:00,59.0,59.0,-100.00,SE,136,1.0,2.0,100,0.00,,,0.52,0.000000,,2013-09-22 03:54:00,